Time;durP1;ratioP1;P1;durP2;ratioP2;P2;SDS_P1;SDS_P2;PMS_P1;PMS_P2;Temp;Humidity;BMP_temperature;BMP_pressure;BME280_temperature;BME280_humidity;BME280_pressure;Samples;Min_cycle;Max_cycle;Signal;HPM_P1;HPM_P2
2022/03/14 00:01:18;;;;;;;7.23;3.40;;;;;;;4.72;61.20;96303.47;5058049;28;20206;-72
2022/03/14 00:03:50;;;;;;;9.20;3.03;;;;;;;4.89;60.52;96303.59;5057747;28;20224;-71
2022/03/14 00:06:17;;;;;;;6.67;2.93;;;;;;;4.80;60.99;96306.22;5057230;28;20261;-72
2022/03/14 00:08:45;;;;;;;6.17;3.73;;;;;;;4.80;61.00;96314.88;5057831;28;20217;-72
2022/03/14 00:11:14;;;;;;;4.97;3.40;;;;;;;4.52;61.79;96322.72;5058300;28;20201;-71
2022/03/14 00:13:43;;;;;;;4.33;2.77;;;;;;;4.63;61.02;96328.63;5057740;28;20264;-71
2022/03/14 00:16:11;;;;;;;6.97;2.80;;;;;;;4.72;61.47;96332.19;5058023;28;20208;-72
2022/03/14 00:18:39;;;;;;;6.67;3.27;;;;;;;4.76;61.80;96325.72;5055380;28;20219;-72
2022/03/14 00:21:09;;;;;;;6.33;3.90;;;;;;;4.85;61.75;96328.34;5058569;28;20269;-72
2022/03/14 00:23:36;;;;;;;9.87;5.13;;;;;;;4.42;62.57;96332.34;5057066;28;20228;-72
2022/03/14 00:26:04;;;;;;;9.07;3.23;;;;;;;4.58;63.00;96335.22;5058254;28;20200;-72
2022/03/14 00:28:31;;;;;;;7.10;3.20;;;;;;;4.55;62.61;96330.28;5058066;28;20643;-72
2022/03/14 00:30:58;;;;;;;4.23;2.47;;;;;;;4.57;63.41;96342.25;5058041;28;20204;-72
2022/03/14 00:33:24;;;;;;;6.90;3.37;;;;;;;4.63;63.09;96343.47;5056923;28;20850;-72
2022/03/14 00:35:51;;;;;;;8.40;3.57;;;;;;;4.73;62.25;96347.72;5057523;28;20234;-72
2022/03/14 00:38:20;;;;;;;6.53;3.20;;;;;;;4.96;61.42;96349.88;5058036;28;21253;-71
2022/03/14 00:40:47;;;;;;;12.97;3.33;;;;;;;4.88;61.75;96354.97;5057400;28;20219;-72
2022/03/14 00:43:13;;;;;;;4.87;2.80;;;;;;;4.80;62.00;96356.66;5057094;28;20229;-72
2022/03/14 00:45:40;;;;;;;4.00;2.73;;;;;;;4.11;64.80;96367.34;5057417;28;20204;-72
2022/03/14 00:48:06;;;;;;;3.57;2.73;;;;;;;4.14;65.53;96380.09;5057504;28;20220;-72
2022/03/14 00:50:33;;;;;;;7.67;2.97;;;;;;;4.12;65.38;96379.41;5057434;28;20220;-71
2022/03/14 00:52:59;;;;;;;6.10;3.27;;;;;;;4.31;64.50;96389.88;5057319;28;20592;-71
2022/03/14 00:55:27;;;;;;;10.23;3.83;;;;;;;4.60;64.32;96390.72;5057526;28;20206;-71
2022/03/14 00:57:53;;;;;;;6.37;3.87;;;;;;;4.72;63.97;96394.81;5056654;28;20204;-71
2022/03/14 01:00:20;;;;;;;10.27;3.47;;;;;;;4.82;63.89;96400.88;5057222;28;20197;-71
2022/03/14 01:02:48;;;;;;;7.70;4.03;;;;;;;4.99;63.52;96398.38;5056923;28;20251;-72
2022/03/14 01:05:14;;;;;;;8.70;4.07;;;;;;;4.89;63.95;96397.56;5057133;28;20299;-72
2022/03/14 01:07:41;;;;;;;9.33;4.33;;;;;;;4.86;63.83;96403.91;5057075;28;20616;-72
2022/03/14 01:10:08;;;;;;;4.43;2.83;;;;;;;4.94;63.99;96408.44;5057021;28;20212;-72
2022/03/14 01:12:36;;;;;;;7.87;3.90;;;;;;;5.19;63.59;96418.28;5058549;28;20208;-71
2022/03/14 01:15:04;;;;;;;12.43;3.43;;;;;;;5.24;63.48;96419.50;5058522;28;20200;-72
2022/03/14 01:17:30;;;;;;;9.37;3.90;;;;;;;5.21;63.28;96419.78;5054948;28;20236;-72
2022/03/14 01:19:57;;;;;;;4.73;3.10;;;;;;;5.28;63.62;96413.03;5057141;28;20219;-71
2022/03/14 01:22:23;;;;;;;10.30;4.13;;;;;;;5.35;64.19;96427.19;5056533;28;20200;-71
2022/03/14 01:24:50;;;;;;;6.13;3.43;;;;;;;4.95;65.16;96433.56;5057042;28;20248;-72
2022/03/14 01:27:16;;;;;;;5.90;2.53;;;;;;;5.20;63.91;96433.00;5056659;28;20208;-72
2022/03/14 01:29:44;;;;;;;14.33;4.17;;;;;;;5.29;63.57;96432.97;5056348;28;20244;-72
2022/03/14 01:32:11;;;;;;;16.63;4.07;;;;;;;5.26;63.52;96441.09;5056734;28;20200;-72
2022/03/14 01:34:37;;;;;;;16.87;4.60;;;;;;;5.27;63.23;96449.75;5056267;28;20789;-72
2022/03/14 01:37:04;;;;;;;4.43;3.23;;;;;;;5.47;63.32;96460.03;5056668;28;20212;-72
2022/03/14 01:39:31;;;;;;;9.90;4.23;;;;;;;5.55;62.61;96462.78;5056833;28;20196;-71
2022/03/14 01:41:58;;;;;;;10.80;4.23;;;;;;;5.54;62.67;96468.97;5056725;28;20197;-71
2022/03/14 01:44:25;;;;;;;8.83;4.33;;;;;;;5.52;60.66;96471.72;5055602;28;20231;-71
2022/03/14 01:46:54;;;;;;;5.17;3.30;;;;;;;5.67;61.64;96485.97;5056767;28;20196;-71
2022/03/14 01:49:21;;;;;;;11.13;4.53;;;;;;;5.62;61.17;96492.59;5056717;28;20885;-71
2022/03/14 01:51:47;;;;;;;10.63;5.80;;;;;;;5.55;60.90;96496.75;5056297;28;20201;-71
2022/03/14 01:54:14;;;;;;;10.37;4.13;;;;;;;5.57;60.81;96505.25;5055771;28;20696;-71
2022/03/14 01:56:41;;;;;;;8.83;3.23;;;;;;;5.65;61.20;96502.75;5056657;28;21020;-71
2022/03/14 01:59:07;;;;;;;10.73;5.13;;;;;;;5.75;60.60;96503.56;5056622;28;20286;-71
2022/03/14 02:01:34;;;;;;;12.47;4.70;;;;;;;5.69;60.42;96520.66;5056166;28;20239;-71
2022/03/14 02:04:02;;;;;;;5.73;3.27;;;;;;;5.94;60.00;96520.06;5056712;28;20622;-71
2022/03/14 02:06:28;;;;;;;6.73;3.07;;;;;;;5.66;60.29;96531.38;5056441;28;20215;-71
2022/03/14 02:08:55;;;;;;;12.73;4.80;;;;;;;5.70;60.77;96543.22;5055895;28;20216;-71
2022/03/14 02:11:23;;;;;;;11.07;4.83;;;;;;;5.78;59.81;96545.16;5056211;28;20359;-71
2022/03/14 02:13:50;;;;;;;10.43;4.73;;;;;;;5.82;60.40;96547.34;5055858;28;20224;-71
2022/03/14 02:16:16;;;;;;;9.07;4.83;;;;;;;5.74;58.31;96556.81;5056302;28;20214;-70
2022/03/14 02:18:43;;;;;;;14.57;4.90;;;;;;;5.87;56.83;96565.22;5052896;28;20548;-70
2022/03/14 02:21:13;;;;;;;8.97;3.90;;;;;;;6.22;56.42;96582.78;5056693;28;20200;-70
2022/03/14 02:23:40;;;;;;;9.20;4.90;;;;;;;6.06;55.84;96598.25;5058630;28;20309;-70
2022/03/14 02:26:06;;;;;;;13.17;5.63;;;;;;;6.05;55.65;96591.34;5060231;28;20216;-70
2022/03/14 02:28:33;;;;;;;17.77;2.90;;;;;;;6.09;55.74;96587.47;5060149;28;20247;-70
2022/03/14 02:31:02;;;;;;;31.63;4.03;;;;;;;6.53;55.21;96592.03;5060374;28;20200;-71
2022/03/14 02:33:28;;;;;;;7.10;3.77;;;;;;;6.38;55.44;96592.66;5059444;28;21252;-71
2022/03/14 02:35:55;;;;;;;10.37;4.90;;;;;;;6.39;55.29;96595.13;5060274;28;20211;-71
2022/03/14 02:38:23;;;;;;;10.33;4.67;;;;;;;6.62;55.24;96606.03;5059619;28;20695;-71
2022/03/14 02:40:49;;;;;;;11.10;5.23;;;;;;;6.28;55.80;96608.38;5059669;28;20250;-71
2022/03/14 02:43:17;;;;;;;7.50;3.70;;;;;;;6.59;55.33;96607.16;5059379;28;20328;-71
2022/03/14 02:45:45;;;;;;;10.30;4.80;;;;;;;6.68;54.90;96601.91;5059819;28;20219;-72
2022/03/14 02:48:12;;;;;;;7.57;3.97;;;;;;;6.65;54.82;96603.97;5059381;28;20282;-71
2022/03/14 02:50:40;;;;;;;8.60;3.13;;;;;;;6.64;55.16;96614.59;5059162;28;20208;-71
2022/03/14 02:53:08;;;;;;;6.30;3.37;;;;;;;6.68;55.22;96616.75;5059024;28;20764;-71
2022/03/14 02:55:36;;;;;;;10.43;4.57;;;;;;;6.63;55.68;96639.94;5059813;28;20236;-71
2022/03/14 02:58:02;;;;;;;10.33;4.13;;;;;;;6.66;55.33;96645.72;5059852;28;20200;-71
2022/03/14 03:00:29;;;;;;;9.70;5.13;;;;;;;6.71;55.31;96647.91;5059770;28;20201;-72
2022/03/14 03:02:56;;;;;;;13.70;4.37;;;;;;;6.87;54.63;96653.34;5058413;28;20216;-73
2022/03/14 03:05:23;;;;;;;12.10;4.50;;;;;;;6.85;54.98;96650.06;5059707;28;20208;-71
2022/03/14 03:07:49;;;;;;;9.00;4.40;;;;;;;6.76;55.44;96666.66;5059397;28;20566;-71
2022/03/14 03:10:23;;;;;;;27.60;4.83;;;;;;;6.67;55.69;96680.59;5059544;28;20235;-71
2022/03/14 03:12:52;;;;;;;6.20;3.83;;;;;;;7.14;55.40;96679.56;5058304;28;20220;-71
2022/03/14 03:15:19;;;;;;;14.33;5.10;;;;;;;6.96;56.19;96687.38;5055239;28;20269;-72
2022/03/14 03:17:45;;;;;;;10.63;4.13;;;;;;;7.21;56.87;96694.56;5056275;28;21170;-71
2022/03/14 03:20:14;;;;;;;15.93;3.67;;;;;;;7.51;56.67;96696.88;5059809;28;20205;-71
2022/03/14 03:22:41;;;;;;;12.20;4.83;;;;;;;7.54;56.86;96702.66;5058283;28;20310;-71
2022/03/14 03:25:08;;;;;;;10.50;4.00;;;;;;;7.72;57.37;96700.88;5058701;28;20219;-71
2022/03/14 03:27:35;;;;;;;13.70;5.23;;;;;;;7.71;58.06;96717.59;5059380;28;21234;-71
2022/03/14 03:30:04;;;;;;;13.00;5.30;;;;;;;8.02;59.02;96716.28;5059279;28;20220;-71
2022/03/14 03:32:31;;;;;;;6.27;3.57;;;;;;;7.95;59.39;96717.84;5057685;28;20223;-71
2022/03/14 03:34:58;;;;;;;10.97;5.50;;;;;;;8.03;59.70;96721.38;5057811;28;20298;-71
2022/03/14 03:37:24;;;;;;;8.37;3.70;;;;;;;8.09;60.20;96733.88;5058643;28;20669;-71
2022/03/14 03:39:51;;;;;;;10.33;4.67;;;;;;;8.16;60.10;96740.22;5058007;28;20200;-71
2022/03/14 03:42:18;;;;;;;12.50;4.20;;;;;;;8.16;61.40;96742.84;5057879;28;20597;-72
2022/03/14 03:44:44;;;;;;;14.23;4.87;;;;;;;8.27;62.39;96749.66;5062534;28;20228;-71
2022/03/14 03:47:12;;;;;;;18.97;6.40;;;;;;;8.44;62.66;96761.97;5062607;28;20223;-71
2022/03/14 03:49:39;;;;;;;12.27;5.17;;;;;;;8.27;62.99;96766.25;5062708;28;20228;-71
2022/03/14 03:52:07;;;;;;;13.07;4.43;;;;;;;8.42;63.33;96758.66;5061679;28;20204;-71
2022/03/14 03:54:33;;;;;;;13.33;5.50;;;;;;;8.41;63.60;96754.38;5060739;28;20335;-71
2022/03/14 03:57:00;;;;;;;13.23;5.47;;;;;;;8.46;65.19;96765.28;5062657;28;20205;-71
2022/03/14 03:59:26;;;;;;;10.43;5.27;;;;;;;8.54;65.50;96771.41;5062574;28;20215;-71
2022/03/14 04:01:53;;;;;;;24.63;4.57;;;;;;;8.61;66.16;96770.66;5062570;28;20208;-71
2022/03/14 04:04:21;;;;;;;12.00;4.47;;;;;;;8.89;66.23;96774.00;5062243;28;20229;-71
2022/03/14 04:06:51;;;;;;;9.63;4.53;;;;;;;8.78;67.38;96788.22;5062261;28;20219;-71
2022/03/14 04:09:18;;;;;;;8.07;4.33;;;;;;;8.92;67.38;96794.69;5062030;28;21155;-71
2022/03/14 04:11:44;;;;;;;8.47;4.07;;;;;;;9.01;66.42;96799.84;5062458;28;20211;-71
2022/03/14 04:14:11;;;;;;;9.90;4.47;;;;;;;8.98;66.59;96808.03;5062181;28;20586;-71
2022/03/14 04:16:39;;;;;;;17.87;5.13;;;;;;;9.07;66.47;96820.28;5062364;28;20238;-71
2022/03/14 04:19:06;;;;;;;13.43;5.17;;;;;;;9.07;66.51;96822.09;5058983;28;20205;-71
2022/03/14 04:21:36;;;;;;;11.80;4.80;;;;;;;9.07;67.57;96829.97;5062316;28;20231;-71
2022/03/14 04:24:06;;;;;;;14.07;5.40;;;;;;;9.03;66.91;96839.16;5061232;28;20610;-71
2022/03/14 04:26:32;;;;;;;14.10;5.50;;;;;;;9.00;67.04;96835.03;5061183;28;20232;-71
2022/03/14 04:28:59;;;;;;;11.83;4.97;;;;;;;8.99;67.77;96848.31;5061452;28;20232;-71
2022/03/14 04:31:26;;;;;;;9.77;4.37;;;;;;;9.05;67.27;96853.78;5062175;28;20193;-71
2022/03/14 04:33:53;;;;;;;9.23;3.77;;;;;;;8.87;68.68;96854.78;5059922;28;20598;-71
2022/03/14 04:36:19;;;;;;;14.70;5.87;;;;;;;9.05;68.13;96859.03;5061409;28;20205;-71
2022/03/14 04:38:47;;;;;;;13.13;5.27;;;;;;;9.25;67.96;96861.34;5062034;28;20204;-71
2022/03/14 04:41:14;;;;;;;12.97;5.67;;;;;;;9.10;68.36;96854.16;5061987;28;20208;-71
2022/03/14 04:43:40;;;;;;;13.77;4.47;;;;;;;9.08;68.89;96854.28;5060627;28;20228;-71
2022/03/14 04:46:07;;;;;;;11.00;4.70;;;;;;;9.10;68.83;96864.69;5060154;28;20207;-71
2022/03/14 04:48:34;;;;;;;10.97;4.63;;;;;;;9.04;69.42;96867.06;5060818;28;20250;-71
2022/03/14 04:51:01;;;;;;;9.03;4.50;;;;;;;9.05;70.03;96874.81;5060862;28;20290;-71
2022/03/14 04:53:27;;;;;;;15.33;6.00;;;;;;;9.18;68.88;96873.44;5059196;28;20757;-71
2022/03/14 04:55:55;;;;;;;14.40;6.07;;;;;;;9.30;69.27;96879.28;5055340;28;20197;-71
2022/03/14 04:58:22;;;;;;;16.03;4.47;;;;;;;9.16;68.96;96892.97;5060736;28;20216;-71
2022/03/14 05:00:49;;;;;;;16.53;6.40;;;;;;;9.34;68.37;96893.75;5060907;28;20205;-71
2022/03/14 05:03:15;;;;;;;16.07;5.40;;;;;;;9.23;69.29;96891.41;5060013;28;20289;-71
2022/03/14 05:05:42;;;;;;;16.33;6.60;;;;;;;9.22;69.38;96906.31;5061076;28;20211;-71
2022/03/14 05:08:08;;;;;;;17.17;6.53;;;;;;;9.03;70.46;96912.75;5061622;28;20208;-71
2022/03/14 05:10:35;;;;;;;16.40;7.03;;;;;;;9.09;70.05;96902.47;5060634;28;20815;-71
2022/03/14 05:13:03;;;;;;;19.57;8.80;;;;;;;9.51;69.46;96893.72;5060893;28;20220;-71
2022/03/14 05:15:32;;;;;;;17.33;6.50;;;;;;;9.36;69.86;96918.13;5060555;28;20212;-71
2022/03/14 05:18:00;;;;;;;15.70;5.57;;;;;;;9.18;69.72;96938.34;5054991;28;20953;-71
2022/03/14 05:20:27;;;;;;;8.03;3.87;;;;;;;9.20;69.37;96936.38;5057383;28;20205;-71
2022/03/14 05:22:54;;;;;;;14.00;5.20;;;;;;;9.17;69.51;96948.03;5056010;28;20224;-71
2022/03/14 05:25:23;;;;;;;12.97;5.07;;;;;;;9.30;69.79;96939.75;5056766;28;20694;-71
2022/03/14 05:27:52;;;;;;;14.47;6.07;;;;;;;9.23;69.66;96946.63;5057350;28;20197;-71
2022/03/14 05:30:20;;;;;;;13.60;4.97;;;;;;;9.32;69.09;96935.19;5056821;28;20224;-71
2022/03/14 05:32:47;;;;;;;10.17;4.60;;;;;;;9.23;68.89;96933.47;5056339;28;20197;-71
2022/03/14 05:35:15;;;;;;;9.00;3.97;;;;;;;9.35;68.96;96929.59;5057117;28;20206;-71
2022/03/14 05:37:42;;;;;;;8.80;3.53;;;;;;;9.21;69.99;96948.56;5056641;28;20232;-71
2022/03/14 05:40:11;;;;;;;11.53;4.10;;;;;;;9.33;70.57;96953.44;5056630;28;20704;-72
2022/03/14 05:42:38;;;;;;;15.63;5.90;;;;;;;9.08;70.44;96963.06;5057036;28;20242;-71
2022/03/14 05:45:05;;;;;;;17.83;5.80;;;;;;;9.16;70.95;96974.47;5056916;28;20224;-72
2022/03/14 05:47:33;;;;;;;12.87;6.17;;;;;;;9.29;70.51;96988.06;5056273;28;20672;-72
2022/03/14 05:49:59;;;;;;;13.63;5.23;;;;;;;9.15;71.18;96992.06;5057315;28;20259;-72
2022/03/14 05:52:26;;;;;;;19.77;5.70;;;;;;;8.99;71.67;97001.59;5055666;28;20201;-72
2022/03/14 05:54:52;;;;;;;15.97;6.27;;;;;;;9.08;71.13;97009.41;5056698;28;20683;-72
2022/03/14 05:57:19;;;;;;;18.40;5.87;;;;;;;9.19;70.23;97014.44;5056318;28;20215;-72
2022/03/14 05:59:45;;;;;;;15.23;6.13;;;;;;;9.15;70.22;97021.00;5057109;28;20211;-71
2022/03/14 06:02:12;;;;;;;15.70;6.03;;;;;;;9.17;70.05;97026.09;5058829;28;20204;-72
2022/03/14 06:04:40;;;;;;;16.37;4.97;;;;;;;9.44;69.58;97029.47;5060284;28;20739;-72
2022/03/14 06:07:07;;;;;;;9.37;4.70;;;;;;;9.27;69.90;97032.13;5057793;28;20739;-72
2022/03/14 06:09:33;;;;;;;16.63;5.57;;;;;;;9.20;69.20;97031.03;5056503;28;20256;-72
2022/03/14 06:12:00;;;;;;;15.03;5.43;;;;;;;9.28;69.49;97026.69;5055983;28;20205;-71
2022/03/14 06:14:26;;;;;;;17.97;5.23;;;;;;;9.25;69.61;97028.78;5056061;28;20231;-71
2022/03/14 06:16:53;;;;;;;9.17;3.97;;;;;;;9.23;69.94;97033.41;5056532;28;20208;-71
2022/03/14 06:19:19;;;;;;;10.57;4.63;;;;;;;9.37;69.62;97038.13;5053016;28;20213;-71
2022/03/14 06:21:47;;;;;;;12.27;5.10;;;;;;;9.64;68.58;97035.41;5055708;28;20200;-71
2022/03/14 06:24:14;;;;;;;17.07;4.97;;;;;;;9.52;68.76;97036.59;5055151;28;20229;-71
2022/03/14 06:26:40;;;;;;;13.57;4.70;;;;;;;9.54;68.70;97051.28;5056213;28;21198;-72
2022/03/14 06:29:07;;;;;;;18.05;5.85;;;;;;;9.58;68.79;97046.53;5055776;28;20212;-72
2022/03/14 06:31:34;;;;;;;13.67;5.63;;;;;;;9.51;69.89;97056.00;5055882;28;20438;-71
2022/03/14 06:34:01;;;;;;;10.47;5.10;;;;;;;9.52;69.12;97057.66;5055881;28;20221;-71
2022/03/14 06:36:28;;;;;;;12.10;4.77;;;;;;;9.67;69.00;97058.78;5056113;28;20204;-71
2022/03/14 06:38:59;;;;;;;10.13;4.30;;;;;;;9.71;70.35;97074.94;5056161;28;20493;-71
2022/03/14 06:41:26;;;;;;;6.77;2.57;;;;;;;9.63;70.84;97066.16;5055275;28;20669;-71
2022/03/14 06:43:53;;;;;;;5.03;2.20;;;;;;;9.68;71.37;97075.22;5055955;28;20216;-71
2022/03/14 06:46:20;;;;;;;3.93;1.60;;;;;;;9.66;71.83;97080.81;5055958;28;21143;-71
2022/03/14 06:48:46;;;;;;;2.47;1.67;;;;;;;9.50;73.27;97078.03;5055608;28;20209;-71
2022/03/14 06:51:13;;;;;;;4.33;1.93;;;;;;;9.79;72.01;97076.84;5056736;28;20311;-71
2022/03/14 06:53:40;;;;;;;2.90;1.03;;;;;;;9.60;73.06;97082.25;5054533;28;20600;-71
2022/03/14 06:56:08;;;;;;;3.33;1.47;;;;;;;9.89;73.36;97082.81;5055618;28;20205;-71
2022/03/14 06:58:35;;;;;;;1.67;1.13;;;;;;;9.63;74.12;97102.19;5056338;28;20299;-71
2022/03/14 07:01:01;;;;;;;2.80;0.93;;;;;;;9.62;74.18;97097.88;5055988;28;20220;-71
2022/03/14 07:03:28;;;;;;;1.07;0.50;;;;;;;9.70;73.87;97099.59;5054636;28;20720;-71
2022/03/14 07:05:54;;;;;;;1.40;0.90;;;;;;;9.70;73.73;97096.97;5055688;28;20576;-71
2022/03/14 07:08:21;;;;;;;0.40;0.40;;;;;;;9.72;74.07;97108.19;5055775;28;20208;-71
2022/03/14 07:10:47;;;;;;;0.73;0.43;;;;;;;9.70;74.07;97109.31;5059324;28;20971;-71
2022/03/14 07:13:15;;;;;;;0.40;0.40;;;;;;;10.09;73.51;97111.47;5058892;28;20255;-71
2022/03/14 07:15:42;;;;;;;2.53;0.77;;;;;;;9.82;73.63;97108.91;5059446;28;20204;-71
2022/03/14 07:18:08;;;;;;;0.30;0.30;;;;;;;9.93;73.49;97121.88;5056486;28;20216;-71
2022/03/14 07:20:34;;;;;;;1.13;0.67;;;;;;;9.79;73.50;97118.94;5059350;28;20208;-71
2022/03/14 07:23:02;;;;;;;4.33;0.77;;;;;;;9.89;73.08;97117.03;5058411;28;20216;-71
2022/03/14 07:25:30;;;;;;;0.60;0.57;;;;;;;10.05;72.87;97136.47;5058947;28;20208;-72
2022/03/14 07:28:00;;;;;;;1.80;1.07;;;;;;;10.30;72.39;97140.97;5058693;28;20665;-71
2022/03/14 07:30:28;;;;;;;2.57;0.30;;;;;;;10.42;71.55;97155.53;5058896;28;20228;-71
2022/03/14 07:32:54;;;;;;;0.50;0.43;;;;;;;10.14;72.04;97146.09;5058227;28;20231;-72
2022/03/14 07:35:22;;;;;;;0.40;0.40;;;;;;;10.43;70.91;97149.28;5058310;28;20196;-71
2022/03/14 07:37:49;;;;;;;1.00;0.70;;;;;;;10.42;71.06;97158.16;5059485;28;20287;-71
2022/03/14 07:40:16;;;;;;;8.13;0.67;;;;;;;10.26;70.88;97165.13;5059314;28;20291;-71
2022/03/14 07:42:44;;;;;;;0.93;0.90;;;;;;;10.46;70.23;97162.16;5057799;28;20204;-71
2022/03/14 07:45:12;;;;;;;0.90;0.60;;;;;;;10.49;69.81;97161.84;5058519;28;20255;-71
2022/03/14 07:47:40;;;;;;;0.97;0.70;;;;;;;10.73;68.98;97156.72;5058579;28;20205;-71
2022/03/14 07:50:09;;;;;;;0.73;0.50;;;;;;;10.82;68.35;97155.78;5057666;28;20256;-71
2022/03/14 07:52:36;;;;;;;0.40;0.33;;;;;;;10.68;68.49;97157.22;5057829;28;20680;-71
2022/03/14 07:55:03;;;;;;;0.27;0.27;;;;;;;10.82;67.87;97153.16;5058933;28;20212;-71
2022/03/14 07:57:31;;;;;;;0.20;0.20;;;;;;;10.81;67.75;97154.16;5058360;28;20311;-71
2022/03/14 07:59:58;;;;;;;0.20;0.20;;;;;;;10.80;67.10;97160.41;5058536;28;20620;-71
2022/03/14 08:02:24;;;;;;;1.73;0.50;;;;;;;10.86;66.87;97160.59;5057832;28;20204;-71
2022/03/14 08:04:52;;;;;;;0.30;0.30;;;;;;;10.86;67.57;97157.97;5058093;28;20704;-71
2022/03/14 08:07:20;;;;;;;0.30;0.30;;;;;;;11.16;66.42;97158.28;5058439;28;20269;-71
2022/03/14 08:09:47;;;;;;;0.40;0.40;;;;;;;11.15;66.05;97167.19;5057996;28;20294;-71
2022/03/14 08:12:13;;;;;;;0.30;0.30;;;;;;;11.12;66.26;97167.47;5057586;28;20219;-72
2022/03/14 08:14:40;;;;;;;0.80;0.50;;;;;;;11.28;65.58;97172.84;5057652;28;20236;-71
2022/03/14 08:17:06;;;;;;;0.20;0.20;;;;;;;11.00;66.29;97178.50;5056645;28;20200;-71
2022/03/14 08:19:34;;;;;;;0.20;0.20;;;;;;;11.21;65.51;97182.38;5057220;28;20227;-72
2022/03/14 08:22:02;;;;;;;0.47;0.30;;;;;;;11.38;65.49;97186.75;5057827;28;20204;-71
2022/03/14 08:24:29;;;;;;;0.30;0.30;;;;;;;11.17;65.11;97194.22;5057057;28;20220;-71
2022/03/14 08:26:55;;;;;;;1.47;0.60;;;;;;;11.31;65.02;97196.28;5058250;28;20200;-71
2022/03/14 08:29:22;;;;;;;0.40;0.40;;;;;;;11.55;64.01;97202.50;5057733;28;20243;-72
2022/03/14 08:31:49;;;;;;;0.30;0.30;;;;;;;11.44;63.82;97209.84;5057871;28;20236;-71
2022/03/14 08:34:15;;;;;;;0.20;0.20;;;;;;;11.35;64.00;97207.34;5057272;28;20235;-71
2022/03/14 08:36:42;;;;;;;0.33;0.33;;;;;;;11.49;63.23;97207.56;5057576;28;20201;-71
2022/03/14 08:39:11;;;;;;;0.57;0.40;;;;;;;11.66;62.97;97204.84;5058276;28;20252;-71
2022/03/14 08:41:37;;;;;;;1.33;0.83;;;;;;;11.61;62.75;97201.06;5058160;28;20197;-71
2022/03/14 08:44:04;;;;;;;0.77;0.40;;;;;;;11.66;61.97;97198.75;5056077;28;20260;-71
2022/03/14 08:46:31;;;;;;;0.50;0.40;;;;;;;12.13;61.39;97205.13;5057041;28;20205;-71
2022/03/14 08:48:58;;;;;;;0.37;0.37;;;;;;;12.09;60.28;97214.38;5058807;28;20197;-71
2022/03/14 08:51:24;;;;;;;0.73;0.30;;;;;;;11.93;60.21;97217.81;5057058;28;20223;-71
2022/03/14 08:53:50;;;;;;;0.23;0.23;;;;;;;11.80;60.23;97228.00;5055644;28;20794;-72
2022/03/14 08:56:18;;;;;;;0.20;0.20;;;;;;;11.83;60.49;97234.78;5058025;28;20207;-71
2022/03/14 08:58:45;;;;;;;0.27;0.27;;;;;;;11.99;59.65;97232.19;5057241;28;20860;-72
2022/03/14 09:01:12;;;;;;;0.20;0.20;;;;;;;12.36;58.81;97241.34;5057179;28;20239;-72
2022/03/14 09:03:39;;;;;;;0.30;0.30;;;;;;;12.06;59.39;97238.47;5056812;28;20708;-71
2022/03/14 09:06:05;;;;;;;0.27;0.27;;;;;;;12.08;60.01;97247.06;5057206;28;20270;-71
2022/03/14 09:08:34;;;;;;;0.30;0.30;;;;;;;12.05;60.65;97247.38;5056677;28;20207;-71
2022/03/14 09:11:01;;;;;;;0.40;0.40;;;;;;;12.11;59.85;97246.75;5054102;28;20225;-71
2022/03/14 09:13:29;;;;;;;0.50;0.40;;;;;;;12.21;59.76;97251.72;5056217;28;21027;-71
2022/03/14 09:15:56;;;;;;;0.50;0.50;;;;;;;12.42;59.42;97252.09;5056565;28;20196;-71
2022/03/14 09:18:26;;;;;;;0.40;0.40;;;;;;;12.46;59.01;97244.63;5057289;28;20232;-71
2022/03/14 09:20:52;;;;;;;1.40;0.73;;;;;;;12.60;58.57;97249.28;5056465;28;20200;-71
2022/03/14 09:23:20;;;;;;;0.50;0.50;;;;;;;12.45;58.29;97245.66;5056385;28;20224;-71
2022/03/14 09:25:46;;;;;;;3.37;0.47;;;;;;;12.79;56.85;97244.47;5056496;28;20204;-72
2022/03/14 09:28:13;;;;;;;0.60;0.60;;;;;;;12.54;57.06;97245.47;5057123;28;20204;-72
2022/03/14 09:30:43;;;;;;;0.50;0.50;;;;;;;13.04;56.28;97248.81;5057102;28;20252;-71
2022/03/14 09:33:10;;;;;;;0.70;0.50;;;;;;;12.85;56.24;97246.47;5055630;28;20228;-71
2022/03/14 09:35:36;;;;;;;0.30;0.30;;;;;;;13.52;55.09;97238.94;5056163;28;20677;-72
2022/03/14 09:38:03;;;;;;;0.37;0.37;;;;;;;13.66;54.41;97249.63;5056678;28;20665;-72
2022/03/14 09:40:32;;;;;;;0.87;0.83;;;;;;;13.72;53.65;97241.00;5056646;28;20638;-71
2022/03/14 09:42:59;;;;;;;3.93;0.40;;;;;;;13.55;52.56;97244.69;5055902;28;20227;-72
2022/03/14 09:45:27;;;;;;;3.13;0.50;;;;;;;13.45;52.62;97251.19;5055473;28;20467;-71
2022/03/14 09:47:58;;;;;;;0.30;0.30;;;;;;;13.78;52.16;97250.06;5054240;28;20196;-71
2022/03/14 09:50:27;;;;;;;2.00;0.50;;;;;;;13.77;52.41;97245.75;5050935;28;20204;-72
2022/03/14 09:52:55;;;;;;;1.60;0.30;;;;;;;14.30;51.26;97252.78;5053555;28;20228;-72
2022/03/14 09:55:21;;;;;;;1.30;0.47;;;;;;;14.67;50.07;97251.03;5054765;28;20201;-71
2022/03/14 09:57:48;;;;;;;0.98;0.70;;;;;;;14.65;49.25;97246.94;5054925;28;20200;-72
2022/03/14 10:00:17;;;;;;;0.20;0.20;;;;;;;14.40;49.16;97253.41;5055617;28;20200;-72
2022/03/14 10:02:44;;;;;;;0.30;0.30;;;;;;;14.04;50.30;97246.97;5054508;28;20215;-72
2022/03/14 10:05:14;;;;;;;0.57;0.40;;;;;;;14.35;50.09;97249.63;5054883;28;20310;-71
2022/03/14 10:07:43;;;;;;;0.23;0.23;;;;;;;14.78;48.07;97255.94;5054947;28;20655;-71
2022/03/14 10:10:10;;;;;;;0.30;0.30;;;;;;;14.19;48.91;97252.38;5055522;28;20204;-71
2022/03/14 10:12:38;;;;;;;0.22;0.20;;;;;;;14.31;49.04;97262.41;5051387;28;20601;-71
2022/03/14 10:15:06;;;;;;;0.20;0.20;;;;;;;14.51;48.50;97257.47;5054987;28;20530;-70
2022/03/14 10:17:35;;;;;;;0.10;0.10;;;;;;;14.54;46.98;97262.44;5055290;28;20576;-70
2022/03/14 10:20:03;;;;;;;0.20;0.20;;;;;;;14.77;47.63;97267.53;5054893;28;20212;-70
2022/03/14 10:22:35;;;;;;;0.20;0.20;;;;;;;14.74;47.65;97267.09;5054156;28;20282;-70
2022/03/14 10:25:04;;;;;;;0.53;0.27;;;;;;;14.69;47.95;97274.75;5054332;28;20223;-69
2022/03/14 10:27:34;;;;;;;0.20;0.20;;;;;;;15.10;48.71;97279.56;5054305;28;20208;-69
2022/03/14 10:30:01;;;;;;;0.30;0.30;;;;;;;14.52;48.75;97277.69;5054109;28;20204;-69
2022/03/14 10:32:33;;;;;;;0.20;0.20;;;;;;;14.59;48.37;97278.63;5053454;28;20220;-69
2022/03/14 10:35:01;;;;;;;0.95;0.40;;;;;;;15.04;46.63;97287.41;5053695;28;21021;-69
2022/03/14 10:37:29;;;;;;;0.30;0.30;;;;;;;14.13;47.38;97279.59;5054680;28;20296;-69
2022/03/14 10:40:03;;;;;;;0.30;0.22;;;;;;;13.98;47.81;97288.41;5054040;28;20911;-69
2022/03/14 10:42:38;;;;;;;0.40;0.40;;;;;;;13.74;48.54;97293.81;5053484;28;20662;-69
2022/03/14 10:45:10;;;;;;;0.20;0.20;;;;;;;13.50;49.84;97289.41;5057952;28;20293;-69
2022/03/14 10:47:37;;;;;;;19.63;0.63;;;;;;;12.88;50.31;97304.34;5058375;28;20208;-68
2022/03/14 10:50:03;;;;;;;0.20;0.20;;;;;;;13.05;50.22;97298.09;5058443;28;20298;-68
2022/03/14 10:52:31;;;;;;;1.40;0.40;;;;;;;13.20;50.45;97289.31;5056937;28;20609;-72
2022/03/14 10:54:57;;;;;;;0.23;0.23;;;;;;;13.89;50.14;97294.75;5056487;28;20475;-71
2022/03/14 10:57:30;;;;;;;0.20;0.20;;;;;;;13.46;49.51;97288.06;5058187;28;20490;-71
2022/03/14 10:59:58;;;;;;;0.67;0.40;;;;;;;13.24;49.73;97290.63;5057734;28;20204;-71
2022/03/14 11:02:26;;;;;;;0.20;0.20;;;;;;;13.69;49.36;97299.59;5057820;28;20204;-71
2022/03/14 11:04:54;;;;;;;1.27;0.60;;;;;;;13.50;48.81;97294.72;5057802;28;20570;-69
2022/03/14 11:07:21;;;;;;;0.73;0.60;;;;;;;13.67;48.56;97296.31;5057937;28;20247;-69
2022/03/14 11:09:50;;;;;;;0.80;0.50;;;;;;;13.86;48.17;97301.22;5058220;28;20207;-71
2022/03/14 11:12:18;;;;;;;0.30;0.30;;;;;;;13.93;49.37;97286.28;5054672;28;20701;-71
2022/03/14 11:14:53;;;;;;;0.30;0.30;;;;;;;14.27;48.36;97290.28;5057299;28;20810;-71
2022/03/14 11:17:21;;;;;;;0.20;0.20;;;;;;;14.33;48.83;97291.41;5057554;28;20235;-69
2022/03/14 11:19:48;;;;;;;0.30;0.30;;;;;;;14.41;47.87;97286.88;5057899;28;20290;-71
2022/03/14 11:22:16;;;;;;;1.88;1.00;;;;;;;14.44;46.72;97291.81;5057326;28;20200;-71
2022/03/14 11:24:46;;;;;;;0.77;0.63;;;;;;;14.56;45.74;97294.91;5056394;28;20224;-71
2022/03/14 11:27:21;;;;;;;0.17;0.17;;;;;;;14.99;45.08;97287.13;5057507;28;20204;-71
2022/03/14 11:29:49;;;;;;;0.20;0.20;;;;;;;14.46;45.02;97292.50;5058148;28;20203;-71
2022/03/14 11:32:18;;;;;;;0.40;0.40;;;;;;;14.67;44.79;97293.47;5057180;28;20247;-71
2022/03/14 11:34:46;;;;;;;0.35;0.30;;;;;;;14.68;44.22;97292.50;5057451;28;20231;-71
2022/03/14 11:37:13;;;;;;;0.75;0.55;;;;;;;14.81;44.64;97303.34;5057037;28;20219;-71